sensor_id;sensor_type;location;lat;lon;timestamp;temperature;humidity
1155;DHT22;566;48.414;9.118;2023-02-28T00:00:30;-2.90;96.30
1155;DHT22;566;48.414;9.118;2023-02-28T00:02:56;-2.90;97.20
1155;DHT22;566;48.414;9.118;2023-02-28T00:05:24;-2.90;97.50
1155;DHT22;566;48.414;9.118;2023-02-28T00:07:50;-3.00;97.50
1155;DHT22;566;48.414;9.118;2023-02-28T00:10:24;-3.00;97.40
1155;DHT22;566;48.414;9.118;2023-02-28T00:12:51;-3.00;97.60
1155;DHT22;566;48.414;9.118;2023-02-28T00:15:18;-3.00;97.80
1155;DHT22;566;48.414;9.118;2023-02-28T00:17:43;-3.00;98.00
1155;DHT22;566;48.414;9.118;2023-02-28T00:20:10;-3.00;98.00
1155;DHT22;566;48.414;9.118;2023-02-28T00:22:45;-3.00;98.00
1155;DHT22;566;48.414;9.118;2023-02-28T00:25:14;-3.10;97.80
1155;DHT22;566;48.414;9.118;2023-02-28T00:27:40;-3.10;98.00
1155;DHT22;566;48.414;9.118;2023-02-28T00:30:08;-3.10;98.00
1155;DHT22;566;48.414;9.118;2023-02-28T00:32:34;-3.20;98.00
1155;DHT22;566;48.414;9.118;2023-02-28T00:35:03;-3.20;98.00
1155;DHT22;566;48.414;9.118;2023-02-28T00:37:31;-3.20;98.00
1155;DHT22;566;48.414;9.118;2023-02-28T00:39:57;-3.10;98.00
1155;DHT22;566;48.414;9.118;2023-02-28T00:42:23;-3.20;98.00
1155;DHT22;566;48.414;9.118;2023-02-28T00:44:49;-3.30;98.00
1155;DHT22;566;48.414;9.118;2023-02-28T00:47:15;-3.30;98.00
1155;DHT22;566;48.414;9.118;2023-02-28T00:49:44;-3.30;98.00
1155;DHT22;566;48.414;9.118;2023-02-28T00:52:10;-3.40;98.00
1155;DHT22;566;48.414;9.118;2023-02-28T00:54:38;-3.40;98.00
1155;DHT22;566;48.414;9.118;2023-02-28T00:57:04;-3.40;98.00
1155;DHT22;566;48.414;9.118;2023-02-28T00:59:29;-3.40;98.00
1155;DHT22;566;48.414;9.118;2023-02-28T01:01:58;-3.50;98.00
1155;DHT22;566;48.414;9.118;2023-02-28T01:04:33;-3.50;98.00
1155;DHT22;566;48.414;9.118;2023-02-28T01:07:05;-3.60;98.00
1155;DHT22;566;48.414;9.118;2023-02-28T01:09:30;-3.60;98.00
1155;DHT22;566;48.414;9.118;2023-02-28T01:11:58;-3.60;98.00
1155;DHT22;566;48.414;9.118;2023-02-28T01:14:23;-3.70;98.00
1155;DHT22;566;48.414;9.118;2023-02-28T01:16:49;-3.60;98.00
1155;DHT22;566;48.414;9.118;2023-02-28T01:19:14;-3.60;98.00
1155;DHT22;566;48.414;9.118;2023-02-28T01:21:40;-3.60;98.00
1155;DHT22;566;48.414;9.118;2023-02-28T01:24:06;-3.60;98.00
1155;DHT22;566;48.414;9.118;2023-02-28T01:26:32;-3.60;98.00
1155;DHT22;566;48.414;9.118;2023-02-28T01:28:58;-3.60;98.00
1155;DHT22;566;48.414;9.118;2023-02-28T01:31:24;-3.60;98.00
1155;DHT22;566;48.414;9.118;2023-02-28T01:33:50;-3.70;98.00
1155;DHT22;566;48.414;9.118;2023-02-28T01:36:23;-3.70;98.00
1155;DHT22;566;48.414;9.118;2023-02-28T01:38:49;-3.70;98.00
1155;DHT22;566;48.414;9.118;2023-02-28T01:41:23;-3.70;98.00
1155;DHT22;566;48.414;9.118;2023-02-28T01:46:19;-3.70;98.00
1155;DHT22;566;48.414;9.118;2023-02-28T01:48:50;-3.70;98.00
1155;DHT22;566;48.414;9.118;2023-02-28T01:51:22;-3.80;98.00
1155;DHT22;566;48.414;9.118;2023-02-28T01:53:54;-3.80;98.00
1155;DHT22;566;48.414;9.118;2023-02-28T01:56:27;-3.80;98.00
1155;DHT22;566;48.414;9.118;2023-02-28T01:58:54;-3.90;98.00
1155;DHT22;566;48.414;9.118;2023-02-28T02:01:25;-4.00;98.00
1155;DHT22;566;48.414;9.118;2023-02-28T02:03:54;-4.10;98.00
1155;DHT22;566;48.414;9.118;2023-02-28T02:06:29;-4.10;98.00
1155;DHT22;566;48.414;9.118;2023-02-28T02:08:55;-4.20;98.00
1155;DHT22;566;48.414;9.118;2023-02-28T02:11:24;-4.20;98.00
1155;DHT22;566;48.414;9.118;2023-02-28T02:27:44;-4.40;96.50
1155;DHT22;566;48.414;9.118;2023-02-28T02:38:32;-4.30;96.00
1155;DHT22;566;48.414;9.118;2023-02-28T02:43:36;-4.30;95.80
1155;DHT22;566;48.414;9.118;2023-02-28T02:46:21;-4.30;95.60
1155;DHT22;566;48.414;9.118;2023-02-28T02:48:48;-4.20;95.50
1155;DHT22;566;48.414;9.118;2023-02-28T02:51:17;-4.20;95.30
1155;DHT22;566;48.414;9.118;2023-02-28T02:53:50;-4.10;95.50
1155;DHT22;566;48.414;9.118;2023-02-28T02:56:23;-4.10;96.00
1155;DHT22;566;48.414;9.118;2023-02-28T02:58:51;-4.00;96.90
1155;DHT22;566;48.414;9.118;2023-02-28T03:01:21;-4.00;96.70
1155;DHT22;566;48.414;9.118;2023-02-28T03:03:57;-4.00;96.80
1155;DHT22;566;48.414;9.118;2023-02-28T03:06:23;-3.90;97.40
1155;DHT22;566;48.414;9.118;2023-02-28T03:08:49;-3.90;97.50
1155;DHT22;566;48.414;9.118;2023-02-28T03:11:15;-3.90;98.00
1155;DHT22;566;48.414;9.118;2023-02-28T03:16:36;-3.90;97.80
1155;DHT22;566;48.414;9.118;2023-02-28T03:21:58;-3.90;97.30
1155;DHT22;566;48.414;9.118;2023-02-28T03:27:12;-3.80;98.00
1155;DHT22;566;48.414;9.118;2023-02-28T03:29:47;-3.80;98.00
1155;DHT22;566;48.414;9.118;2023-02-28T03:32:24;-3.90;98.00
1155;DHT22;566;48.414;9.118;2023-02-28T03:35:15;-3.90;97.70
1155;DHT22;566;48.414;9.118;2023-02-28T03:37:55;-3.80;97.40
1155;DHT22;566;48.414;9.118;2023-02-28T03:40:27;-3.80;98.00
1155;DHT22;566;48.414;9.118;2023-02-28T03:42:59;-3.90;98.00
1155;DHT22;566;48.414;9.118;2023-02-28T03:45:30;-3.80;97.40
1155;DHT22;566;48.414;9.118;2023-02-28T03:48:16;-3.80;98.00
1155;DHT22;566;48.414;9.118;2023-02-28T03:50:46;-3.80;98.00
1155;DHT22;566;48.414;9.118;2023-02-28T03:53:22;-3.80;98.00
1155;DHT22;566;48.414;9.118;2023-02-28T03:56:03;-3.90;98.00
1155;DHT22;566;48.414;9.118;2023-02-28T03:59:42;-3.80;98.00
1155;DHT22;566;48.414;9.118;2023-02-28T04:01:44;-3.80;98.00
1155;DHT22;566;48.414;9.118;2023-02-28T04:04:11;-3.80;98.00
1155;DHT22;566;48.414;9.118;2023-02-28T04:06:40;-3.70;98.00
1155;DHT22;566;48.414;9.118;2023-02-28T04:09:12;-3.70;98.00
1155;DHT22;566;48.414;9.118;2023-02-28T04:11:43;-3.70;98.00
1155;DHT22;566;48.414;9.118;2023-02-28T04:14:11;-3.70;98.00
1155;DHT22;566;48.414;9.118;2023-02-28T04:16:39;-3.60;98.00
1155;DHT22;566;48.414;9.118;2023-02-28T04:19:06;-3.60;98.00
1155;DHT22;566;48.414;9.118;2023-02-28T04:21:37;-3.60;98.00
1155;DHT22;566;48.414;9.118;2023-02-28T04:24:05;-3.60;98.00
1155;DHT22;566;48.414;9.118;2023-02-28T04:26:35;-3.60;98.00
1155;DHT22;566;48.414;9.118;2023-02-28T04:29:03;-3.60;98.00
1155;DHT22;566;48.414;9.118;2023-02-28T04:31:29;-3.70;98.00
1155;DHT22;566;48.414;9.118;2023-02-28T04:33:55;-3.70;98.00
1155;DHT22;566;48.414;9.118;2023-02-28T04:36:20;-3.60;98.00
1155;DHT22;566;48.414;9.118;2023-02-28T04:38:48;-3.60;98.00
1155;DHT22;566;48.414;9.118;2023-02-28T04:41:14;-3.50;98.00
1155;DHT22;566;48.414;9.118;2023-02-28T04:43:39;-3.50;98.00
1155;DHT22;566;48.414;9.118;2023-02-28T04:46:06;-3.50;98.00
1155;DHT22;566;48.414;9.118;2023-02-28T04:48:34;-3.50;98.00
1155;DHT22;566;48.414;9.118;2023-02-28T04:51:01;-3.50;98.00
1155;DHT22;566;48.414;9.118;2023-02-28T04:53:27;-3.60;98.00
1155;DHT22;566;48.414;9.118;2023-02-28T04:55:54;-3.60;98.00
1155;DHT22;566;48.414;9.118;2023-02-28T04:58:20;-3.60;98.00
1155;DHT22;566;48.414;9.118;2023-02-28T05:00:48;-3.60;98.00
1155;DHT22;566;48.414;9.118;2023-02-28T05:03:14;-3.50;98.00
1155;DHT22;566;48.414;9.118;2023-02-28T05:05:39;-3.50;98.00
1155;DHT22;566;48.414;9.118;2023-02-28T05:08:05;-3.50;98.00
1155;DHT22;566;48.414;9.118;2023-02-28T05:10:31;-3.50;98.00
1155;DHT22;566;48.414;9.118;2023-02-28T05:12:57;-3.50;98.00
1155;DHT22;566;48.414;9.118;2023-02-28T05:15:23;-3.50;98.00
1155;DHT22;566;48.414;9.118;2023-02-28T05:17:49;-3.50;98.00
1155;DHT22;566;48.414;9.118;2023-02-28T05:20:14;-3.50;98.00
1155;DHT22;566;48.414;9.118;2023-02-28T05:22:41;-3.50;98.00
1155;DHT22;566;48.414;9.118;2023-02-28T05:25:13;-3.50;98.00
1155;DHT22;566;48.414;9.118;2023-02-28T05:27:43;-3.50;98.00
1155;DHT22;566;48.414;9.118;2023-02-28T05:30:10;-3.50;98.00
1155;DHT22;566;48.414;9.118;2023-02-28T05:32:38;-3.50;98.00
1155;DHT22;566;48.414;9.118;2023-02-28T05:35:05;-3.50;98.00
1155;DHT22;566;48.414;9.118;2023-02-28T05:37:31;-3.50;98.00
1155;DHT22;566;48.414;9.118;2023-02-28T05:39:58;-3.60;98.00
1155;DHT22;566;48.414;9.118;2023-02-28T05:42:25;-3.60;98.00
1155;DHT22;566;48.414;9.118;2023-02-28T05:44:50;-3.60;98.00
1155;DHT22;566;48.414;9.118;2023-02-28T05:47:17;-3.60;98.00
1155;DHT22;566;48.414;9.118;2023-02-28T05:49:42;-3.60;98.00
1155;DHT22;566;48.414;9.118;2023-02-28T05:52:08;-3.60;98.00
1155;DHT22;566;48.414;9.118;2023-02-28T05:54:33;-3.60;98.00
1155;DHT22;566;48.414;9.118;2023-02-28T05:56:59;-3.60;98.00
1155;DHT22;566;48.414;9.118;2023-02-28T05:59:24;-3.60;98.00
1155;DHT22;566;48.414;9.118;2023-02-28T06:01:50;-3.60;98.00
1155;DHT22;566;48.414;9.118;2023-02-28T06:04:19;-3.50;98.00
1155;DHT22;566;48.414;9.118;2023-02-28T06:06:48;-3.50;98.00
1155;DHT22;566;48.414;9.118;2023-02-28T06:09:17;-3.50;98.00
1155;DHT22;566;48.414;9.118;2023-02-28T06:11:43;-3.50;98.00
1155;DHT22;566;48.414;9.118;2023-02-28T06:14:17;-3.40;98.00
1155;DHT22;566;48.414;9.118;2023-02-28T06:16:43;-3.40;98.00
1155;DHT22;566;48.414;9.118;2023-02-28T06:19:09;-3.40;98.00
1155;DHT22;566;48.414;9.118;2023-02-28T06:21:35;-3.40;98.00
1155;DHT22;566;48.414;9.118;2023-02-28T06:24:02;-3.40;98.00
1155;DHT22;566;48.414;9.118;2023-02-28T06:26:27;-3.40;98.00
1155;DHT22;566;48.414;9.118;2023-02-28T06:28:54;-3.30;98.00
1155;DHT22;566;48.414;9.118;2023-02-28T06:31:20;-3.40;98.00
1155;DHT22;566;48.414;9.118;2023-02-28T06:33:46;-3.30;98.00
1155;DHT22;566;48.414;9.118;2023-02-28T06:36:13;-3.30;98.00
1155;DHT22;566;48.414;9.118;2023-02-28T06:38:39;-3.30;98.00
1155;DHT22;566;48.414;9.118;2023-02-28T06:41:06;-3.20;98.00
1155;DHT22;566;48.414;9.118;2023-02-28T06:43:36;-3.20;98.00
1155;DHT22;566;48.414;9.118;2023-02-28T06:46:04;-3.10;98.00
1155;DHT22;566;48.414;9.118;2023-02-28T06:48:30;-3.10;98.00
1155;DHT22;566;48.414;9.118;2023-02-28T06:51:13;-3.10;98.00
1155;DHT22;566;48.414;9.118;2023-02-28T06:53:40;-3.10;98.00
1155;DHT22;566;48.414;9.118;2023-02-28T06:56:12;-3.00;98.00
1155;DHT22;566;48.414;9.118;2023-02-28T06:58:38;-3.00;98.00
1155;DHT22;566;48.414;9.118;2023-02-28T07:01:08;-3.00;98.00
1155;DHT22;566;48.414;9.118;2023-02-28T07:03:35;-2.90;98.00
1155;DHT22;566;48.414;9.118;2023-02-28T07:06:01;-2.80;98.00
1155;DHT22;566;48.414;9.118;2023-02-28T07:08:28;-2.70;98.00
1155;DHT22;566;48.414;9.118;2023-02-28T07:10:54;-2.70;98.00
1155;DHT22;566;48.414;9.118;2023-02-28T07:13:21;-2.60;98.00
1155;DHT22;566;48.414;9.118;2023-02-28T07:16:01;-2.50;98.00
1155;DHT22;566;48.414;9.118;2023-02-28T07:18:27;-2.50;98.00
1155;DHT22;566;48.414;9.118;2023-02-28T07:20:53;-2.40;98.00
1155;DHT22;566;48.414;9.118;2023-02-28T07:23:19;-2.40;98.00
1155;DHT22;566;48.414;9.118;2023-02-28T07:25:45;-2.30;98.00
1155;DHT22;566;48.414;9.118;2023-02-28T07:28:12;-2.30;98.00
1155;DHT22;566;48.414;9.118;2023-02-28T07:30:38;-2.30;98.00
1155;DHT22;566;48.414;9.118;2023-02-28T07:33:03;-2.30;98.00
1155;DHT22;566;48.414;9.118;2023-02-28T07:35:30;-2.20;98.00
1155;DHT22;566;48.414;9.118;2023-02-28T07:37:57;-2.10;98.00
1155;DHT22;566;48.414;9.118;2023-02-28T07:40:23;-2.10;98.00
1155;DHT22;566;48.414;9.118;2023-02-28T07:42:49;-2.10;97.90
1155;DHT22;566;48.414;9.118;2023-02-28T07:45:14;-2.00;97.80
1155;DHT22;566;48.414;9.118;2023-02-28T07:47:41;-2.00;97.60
1155;DHT22;566;48.414;9.118;2023-02-28T07:50:10;-2.00;97.30
1155;DHT22;566;48.414;9.118;2023-02-28T07:52:37;-1.90;97.50
1155;DHT22;566;48.414;9.118;2023-02-28T07:55:06;-1.90;97.10
1155;DHT22;566;48.414;9.118;2023-02-28T07:57:32;-2.00;97.10
1155;DHT22;566;48.414;9.118;2023-02-28T07:59:58;-1.90;97.50
1155;DHT22;566;48.414;9.118;2023-02-28T08:02:24;-1.80;97.20
1155;DHT22;566;48.414;9.118;2023-02-28T08:04:50;-1.80;97.20
1155;DHT22;566;48.414;9.118;2023-02-28T08:07:16;-1.80;97.00
1155;DHT22;566;48.414;9.118;2023-02-28T08:09:43;-1.80;97.10
1155;DHT22;566;48.414;9.118;2023-02-28T08:12:09;-1.80;96.80
1155;DHT22;566;48.414;9.118;2023-02-28T08:14:36;-1.70;96.90
1155;DHT22;566;48.414;9.118;2023-02-28T08:17:08;-1.70;96.80
1155;DHT22;566;48.414;9.118;2023-02-28T08:19:34;-1.50;96.20
1155;DHT22;566;48.414;9.118;2023-02-28T08:21:59;-1.50;95.70
1155;DHT22;566;48.414;9.118;2023-02-28T08:24:25;-1.50;96.20
1155;DHT22;566;48.414;9.118;2023-02-28T08:26:50;-1.30;96.20
1155;DHT22;566;48.414;9.118;2023-02-28T08:29:16;-1.30;95.70
1155;DHT22;566;48.414;9.118;2023-02-28T08:31:42;-1.30;95.40
1155;DHT22;566;48.414;9.118;2023-02-28T08:34:09;-1.20;95.70
1155;DHT22;566;48.414;9.118;2023-02-28T08:36:34;-1.30;94.90
1155;DHT22;566;48.414;9.118;2023-02-28T08:39:00;-1.20;95.40
1155;DHT22;566;48.414;9.118;2023-02-28T08:41:26;-1.20;95.20
1155;DHT22;566;48.414;9.118;2023-02-28T08:43:51;-1.30;95.20
1155;DHT22;566;48.414;9.118;2023-02-28T08:46:17;-1.30;95.40
1155;DHT22;566;48.414;9.118;2023-02-28T08:48:43;-1.30;95.50
1155;DHT22;566;48.414;9.118;2023-02-28T08:51:11;-1.30;95.10
1155;DHT22;566;48.414;9.118;2023-02-28T08:53:38;-1.40;94.90
1155;DHT22;566;48.414;9.118;2023-02-28T08:56:14;-1.30;95.70
1155;DHT22;566;48.414;9.118;2023-02-28T08:58:42;-1.00;95.50
1155;DHT22;566;48.414;9.118;2023-02-28T09:01:16;-1.00;94.50
1155;DHT22;566;48.414;9.118;2023-02-28T09:03:47;-1.00;94.70
1155;DHT22;566;48.414;9.118;2023-02-28T09:06:15;-0.90;93.90
1155;DHT22;566;48.414;9.118;2023-02-28T09:08:41;-1.00;94.20
1155;DHT22;566;48.414;9.118;2023-02-28T09:11:08;-1.00;94.50
1155;DHT22;566;48.414;9.118;2023-02-28T09:13:34;-0.90;94.20
1155;DHT22;566;48.414;9.118;2023-02-28T09:16:01;-0.90;93.80
1155;DHT22;566;48.414;9.118;2023-02-28T09:18:28;-0.80;94.10
1155;DHT22;566;48.414;9.118;2023-02-28T09:20:54;-0.70;93.90
1155;DHT22;566;48.414;9.118;2023-02-28T09:23:20;-0.70;93.10
1155;DHT22;566;48.414;9.118;2023-02-28T09:25:47;-0.90;93.10
1155;DHT22;566;48.414;9.118;2023-02-28T09:28:13;-1.00;93.60
1155;DHT22;566;48.414;9.118;2023-02-28T09:30:46;-1.00;94.10
1155;DHT22;566;48.414;9.118;2023-02-28T09:33:12;-0.70;94.20
1155;DHT22;566;48.414;9.118;2023-02-28T09:35:37;-0.60;93.20
1155;DHT22;566;48.414;9.118;2023-02-28T09:38:03;-0.70;93.30
1155;DHT22;566;48.414;9.118;2023-02-28T09:40:30;-0.50;93.90
1155;DHT22;566;48.414;9.118;2023-02-28T09:42:57;-0.40;93.10
1155;DHT22;566;48.414;9.118;2023-02-28T09:47:55;-0.20;92.00
1155;DHT22;566;48.414;9.118;2023-02-28T09:52:59;-0.20;91.70
1155;DHT22;566;48.414;9.118;2023-02-28T09:55:38;-0.30;91.80
1155;DHT22;566;48.414;9.118;2023-02-28T09:58:05;-0.20;92.00
1155;DHT22;566;48.414;9.118;2023-02-28T10:00:41;-0.10;91.40
1155;DHT22;566;48.414;9.118;2023-02-28T10:06:19;0.10;91.50
1155;DHT22;566;48.414;9.118;2023-02-28T10:09:14;0.30;91.30
1155;DHT22;566;48.414;9.118;2023-02-28T10:11:44;0.60;91.10
1155;DHT22;566;48.414;9.118;2023-02-28T10:14:16;0.60;89.50
1155;DHT22;566;48.414;9.118;2023-02-28T10:16:50;0.60;89.60
1155;DHT22;566;48.414;9.118;2023-02-28T10:19:55;0.60;89.00
1155;DHT22;566;48.414;9.118;2023-02-28T10:24:54;1.10;88.20
1155;DHT22;566;48.414;9.118;2023-02-28T10:27:24;1.30;88.00
1155;DHT22;566;48.414;9.118;2023-02-28T10:29:52;1.50;87.10
1155;DHT22;566;48.414;9.118;2023-02-28T10:32:21;1.40;86.20
1155;DHT22;566;48.414;9.118;2023-02-28T10:37:38;1.30;88.00
1155;DHT22;566;48.414;9.118;2023-02-28T10:40:06;1.50;87.50
1155;DHT22;566;48.414;9.118;2023-02-28T10:42:33;1.90;87.00
1155;DHT22;566;48.414;9.118;2023-02-28T10:47:32;2.10;84.90
1155;DHT22;566;48.414;9.118;2023-02-28T10:49:59;2.00;84.50
1155;DHT22;566;48.414;9.118;2023-02-28T10:52:41;1.90;85.60
1155;DHT22;566;48.414;9.118;2023-02-28T10:55:21;2.00;85.40
1155;DHT22;566;48.414;9.118;2023-02-28T10:57:48;2.20;84.90
1155;DHT22;566;48.414;9.118;2023-02-28T11:00:19;2.20;84.60
1155;DHT22;566;48.414;9.118;2023-02-28T11:02:46;2.20;85.00
1155;DHT22;566;48.414;9.118;2023-02-28T11:05:28;2.20;83.60
1155;DHT22;566;48.414;9.118;2023-02-28T11:07:57;2.10;85.10
1155;DHT22;566;48.414;9.118;2023-02-28T11:10:27;2.20;84.30
1155;DHT22;566;48.414;9.118;2023-02-28T11:12:57;2.60;84.40
1155;DHT22;566;48.414;9.118;2023-02-28T11:18:04;3.30;82.50
1155;DHT22;566;48.414;9.118;2023-02-28T11:20:32;3.30;81.80
1155;DHT22;566;48.414;9.118;2023-02-28T11:23:01;3.00;82.00
1155;DHT22;566;48.414;9.118;2023-02-28T11:25:36;2.90;82.30
1155;DHT22;566;48.414;9.118;2023-02-28T11:28:22;2.70;82.70
1155;DHT22;566;48.414;9.118;2023-02-28T11:33:52;2.90;82.00
1155;DHT22;566;48.414;9.118;2023-02-28T11:36:21;2.50;82.40
1155;DHT22;566;48.414;9.118;2023-02-28T11:38:55;2.20;83.20
1155;DHT22;566;48.414;9.118;2023-02-28T11:55:26;2.90;82.50
1155;DHT22;566;48.414;9.118;2023-02-28T12:00:34;3.50;81.90
1155;DHT22;566;48.414;9.118;2023-02-28T12:09:34;2.80;82.00
1155;DHT22;566;48.414;9.118;2023-02-28T12:11:51;3.00;82.60
1155;DHT22;566;48.414;9.118;2023-02-28T12:20:34;2.90;81.10
1155;DHT22;566;48.414;9.118;2023-02-28T12:26:07;3.90;81.10
1155;DHT22;566;48.414;9.118;2023-02-28T12:28:40;4.10;80.40
1155;DHT22;566;48.414;9.118;2023-02-28T12:31:18;4.80;79.80
1155;DHT22;566;48.414;9.118;2023-02-28T12:33:50;5.50;77.60
1155;DHT22;566;48.414;9.118;2023-02-28T12:36:19;5.40;77.00
1155;DHT22;566;48.414;9.118;2023-02-28T12:41:43;5.30;77.00
1155;DHT22;566;48.414;9.118;2023-02-28T12:44:35;4.90;76.70
1155;DHT22;566;48.414;9.118;2023-02-28T12:47:06;4.50;79.70
1155;DHT22;566;48.414;9.118;2023-02-28T12:49:39;4.50;79.20
1155;DHT22;566;48.414;9.118;2023-02-28T12:52:07;5.20;79.20
1155;DHT22;566;48.414;9.118;2023-02-28T12:54:47;5.40;77.50
1155;DHT22;566;48.414;9.118;2023-02-28T12:57:43;5.30;77.10
1155;DHT22;566;48.414;9.118;2023-02-28T13:00:18;5.20;78.00
1155;DHT22;566;48.414;9.118;2023-02-28T13:11:43;5.70;76.60
1155;DHT22;566;48.414;9.118;2023-02-28T13:17:01;5.50;75.00
1155;DHT22;566;48.414;9.118;2023-02-28T13:19:30;5.50;76.50
1155;DHT22;566;48.414;9.118;2023-02-28T13:21:57;5.50;76.10
1155;DHT22;566;48.414;9.118;2023-02-28T13:24:44;5.60;76.20
1155;DHT22;566;48.414;9.118;2023-02-28T13:27:22;5.50;75.80
1155;DHT22;566;48.414;9.118;2023-02-28T13:29:52;5.10;75.90
1155;DHT22;566;48.414;9.118;2023-02-28T13:32:29;5.20;77.20
1155;DHT22;566;48.414;9.118;2023-02-28T13:39:51;5.10;77.50
1155;DHT22;566;48.414;9.118;2023-02-28T13:47:36;4.90;79.50
1155;DHT22;566;48.414;9.118;2023-02-28T13:52:52;5.10;78.50
1155;DHT22;566;48.414;9.118;2023-02-28T13:55:35;5.40;79.20
1155;DHT22;566;48.414;9.118;2023-02-28T14:00:37;5.30;77.90
1155;DHT22;566;48.414;9.118;2023-02-28T14:06:20;5.50;78.40
1155;DHT22;566;48.414;9.118;2023-02-28T14:11:35;5.80;76.00
1155;DHT22;566;48.414;9.118;2023-02-28T14:14:03;6.00;77.00
1155;DHT22;566;48.414;9.118;2023-02-28T14:16:45;6.10;75.90
1155;DHT22;566;48.414;9.118;2023-02-28T14:19:21;6.40;75.30
1155;DHT22;566;48.414;9.118;2023-02-28T14:27:41;5.80;77.70
1155;DHT22;566;48.414;9.118;2023-02-28T14:35:44;7.20;75.00
1155;DHT22;566;48.414;9.118;2023-02-28T14:38:21;7.00;72.20
1155;DHT22;566;48.414;9.118;2023-02-28T14:40:51;7.00;74.60
1155;DHT22;566;48.414;9.118;2023-02-28T14:43:27;7.40;71.00
1155;DHT22;566;48.414;9.118;2023-02-28T14:45:55;7.50;72.90
1155;DHT22;566;48.414;9.118;2023-02-28T14:48:22;7.70;71.40
1155;DHT22;566;48.414;9.118;2023-02-28T14:50:58;7.60;71.70
1155;DHT22;566;48.414;9.118;2023-02-28T14:53:28;7.90;72.70
1155;DHT22;566;48.414;9.118;2023-02-28T14:55:54;8.20;70.40
1155;DHT22;566;48.414;9.118;2023-02-28T14:58:31;7.90;71.20
1155;DHT22;566;48.414;9.118;2023-02-28T15:00:59;7.50;71.80
1155;DHT22;566;48.414;9.118;2023-02-28T15:03:34;7.30;71.70
1155;DHT22;566;48.414;9.118;2023-02-28T15:06:04;7.20;72.30
1155;DHT22;566;48.414;9.118;2023-02-28T15:08:32;7.70;72.40
1155;DHT22;566;48.414;9.118;2023-02-28T15:13:44;8.30;70.50
1155;DHT22;566;48.414;9.118;2023-02-28T15:16:13;8.40;69.50
1155;DHT22;566;48.414;9.118;2023-02-28T15:18:54;8.10;69.40
1155;DHT22;566;48.414;9.118;2023-02-28T15:21:25;7.90;70.10
1155;DHT22;566;48.414;9.118;2023-02-28T15:23:58;8.00;69.70
1155;DHT22;566;48.414;9.118;2023-02-28T15:26:34;7.80;69.70
1155;DHT22;566;48.414;9.118;2023-02-28T15:29:06;7.70;69.90
1155;DHT22;566;48.414;9.118;2023-02-28T15:31:50;7.70;69.90
1155;DHT22;566;48.414;9.118;2023-02-28T15:40:32;7.10;70.60
1155;DHT22;566;48.414;9.118;2023-02-28T15:43:00;7.10;70.80
1155;DHT22;566;48.414;9.118;2023-02-28T15:45:52;7.30;71.90
1155;DHT22;566;48.414;9.118;2023-02-28T15:48:33;7.40;70.20
1155;DHT22;566;48.414;9.118;2023-02-28T15:51:18;7.90;69.20
1155;DHT22;566;48.414;9.118;2023-02-28T15:56:38;7.50;69.30
1155;DHT22;566;48.414;9.118;2023-02-28T15:59:28;7.60;69.40
1155;DHT22;566;48.414;9.118;2023-02-28T16:04:35;7.80;69.60
1155;DHT22;566;48.414;9.118;2023-02-28T16:07:12;7.80;70.10
1155;DHT22;566;48.414;9.118;2023-02-28T16:09:40;7.60;69.70
1155;DHT22;566;48.414;9.118;2023-02-28T16:12:11;7.40;69.80
1155;DHT22;566;48.414;9.118;2023-02-28T16:14:38;6.90;70.50
1155;DHT22;566;48.414;9.118;2023-02-28T16:17:20;6.50;71.70
1155;DHT22;566;48.414;9.118;2023-02-28T16:19:50;6.40;72.20
1155;DHT22;566;48.414;9.118;2023-02-28T16:22:19;6.50;72.10
1155;DHT22;566;48.414;9.118;2023-02-28T16:24:45;6.40;71.50
1155;DHT22;566;48.414;9.118;2023-02-28T16:27:32;5.90;72.60
1155;DHT22;566;48.414;9.118;2023-02-28T16:30:01;5.20;73.90
1155;DHT22;566;48.414;9.118;2023-02-28T16:32:27;4.30;76.40
1155;DHT22;566;48.414;9.118;2023-02-28T16:34:53;3.80;78.30
1155;DHT22;566;48.414;9.118;2023-02-28T16:37:18;3.40;79.30
1155;DHT22;566;48.414;9.118;2023-02-28T16:39:44;3.10;80.80
1155;DHT22;566;48.414;9.118;2023-02-28T16:42:25;2.90;81.90
1155;DHT22;566;48.414;9.118;2023-02-28T16:44:53;2.60;82.40
1155;DHT22;566;48.414;9.118;2023-02-28T16:47:20;2.40;82.70
1155;DHT22;566;48.414;9.118;2023-02-28T16:49:46;2.20;83.80
1155;DHT22;566;48.414;9.118;2023-02-28T16:52:13;2.00;84.90
1155;DHT22;566;48.414;9.118;2023-02-28T16:54:40;1.90;85.70
1155;DHT22;566;48.414;9.118;2023-02-28T16:57:21;1.70;85.10
1155;DHT22;566;48.414;9.118;2023-02-28T16:59:49;1.60;85.50
1155;DHT22;566;48.414;9.118;2023-02-28T17:02:17;1.40;85.80
1155;DHT22;566;48.414;9.118;2023-02-28T17:04:45;1.30;87.00
1155;DHT22;566;48.414;9.118;2023-02-28T17:07:12;1.10;87.50
1155;DHT22;566;48.414;9.118;2023-02-28T17:09:38;0.90;88.00
1155;DHT22;566;48.414;9.118;2023-02-28T17:12:04;0.70;88.70
1155;DHT22;566;48.414;9.118;2023-02-28T17:14:30;0.50;88.90
1155;DHT22;566;48.414;9.118;2023-02-28T17:16:56;0.40;89.80
1155;DHT22;566;48.414;9.118;2023-02-28T17:19:21;0.30;89.90
1155;DHT22;566;48.414;9.118;2023-02-28T17:21:47;0.30;90.20
1155;DHT22;566;48.414;9.118;2023-02-28T17:24:13;0.30;90.30
1155;DHT22;566;48.414;9.118;2023-02-28T17:26:40;0.10;90.70
1155;DHT22;566;48.414;9.118;2023-02-28T17:29:17;-0.10;91.30
1155;DHT22;566;48.414;9.118;2023-02-28T17:31:43;-0.20;91.80
1155;DHT22;566;48.414;9.118;2023-02-28T17:34:09;-0.20;92.10
1155;DHT22;566;48.414;9.118;2023-02-28T17:36:35;-0.30;92.40
1155;DHT22;566;48.414;9.118;2023-02-28T17:39:03;-0.40;92.80
1155;DHT22;566;48.414;9.118;2023-02-28T17:41:29;-0.50;93.30
1155;DHT22;566;48.414;9.118;2023-02-28T17:43:56;-0.60;93.50
1155;DHT22;566;48.414;9.118;2023-02-28T17:46:23;-0.70;94.00
1155;DHT22;566;48.414;9.118;2023-02-28T17:48:51;-0.90;94.40
1155;DHT22;566;48.414;9.118;2023-02-28T17:51:19;-0.90;95.20
1155;DHT22;566;48.414;9.118;2023-02-28T17:53:45;-1.00;95.40
1155;DHT22;566;48.414;9.118;2023-02-28T17:56:20;-1.00;95.80
1155;DHT22;566;48.414;9.118;2023-02-28T17:58:46;-1.10;96.10
1155;DHT22;566;48.414;9.118;2023-02-28T18:01:12;-1.10;96.50
1155;DHT22;566;48.414;9.118;2023-02-28T18:03:39;-1.10;96.60
1155;DHT22;566;48.414;9.118;2023-02-28T18:06:05;-1.20;96.80
1155;DHT22;566;48.414;9.118;2023-02-28T18:08:32;-1.30;97.10
1155;DHT22;566;48.414;9.118;2023-02-28T18:11:00;-1.40;97.30
1155;DHT22;566;48.414;9.118;2023-02-28T18:13:26;-1.50;97.70
1155;DHT22;566;48.414;9.118;2023-02-28T18:15:53;-1.40;97.90
1155;DHT22;566;48.414;9.118;2023-02-28T18:18:22;-1.40;97.70
1155;DHT22;566;48.414;9.118;2023-02-28T18:20:47;-1.40;97.50
1155;DHT22;566;48.414;9.118;2023-02-28T18:23:15;-1.50;97.30
1155;DHT22;566;48.414;9.118;2023-02-28T18:25:41;-1.60;97.40
1155;DHT22;566;48.414;9.118;2023-02-28T18:28:09;-1.70;97.60
1155;DHT22;566;48.414;9.118;2023-02-28T18:30:36;-1.70;98.00
1155;DHT22;566;48.414;9.118;2023-02-28T18:33:02;-1.60;98.00
1155;DHT22;566;48.414;9.118;2023-02-28T18:35:28;-1.70;98.00
1155;DHT22;566;48.414;9.118;2023-02-28T18:38:19;-1.70;98.00
1155;DHT22;566;48.414;9.118;2023-02-28T18:41:00;-1.60;98.00
1155;DHT22;566;48.414;9.118;2023-02-28T18:43:28;-1.60;98.00
1155;DHT22;566;48.414;9.118;2023-02-28T18:45:54;-1.60;98.00
1155;DHT22;566;48.414;9.118;2023-02-28T18:48:20;-1.70;98.00
1155;DHT22;566;48.414;9.118;2023-02-28T18:50:51;-1.70;98.00
1155;DHT22;566;48.414;9.118;2023-02-28T18:53:17;-1.90;98.00
1155;DHT22;566;48.414;9.118;2023-02-28T18:55:43;-1.90;98.00
1155;DHT22;566;48.414;9.118;2023-02-28T18:58:09;-1.90;98.00
1155;DHT22;566;48.414;9.118;2023-02-28T19:00:35;-1.80;98.00
1155;DHT22;566;48.414;9.118;2023-02-28T19:03:02;-1.90;98.00
1155;DHT22;566;48.414;9.118;2023-02-28T19:05:28;-1.90;98.00
1155;DHT22;566;48.414;9.118;2023-02-28T19:08:00;-1.80;98.00
1155;DHT22;566;48.414;9.118;2023-02-28T19:10:27;-1.90;98.00